Hauptseite
METAR-TAF:

METAR-TAF

Flughäfen :

Flughafen Lannion-Côte de Granit

Lannion, Frankreich

Breite: 48-45N, Länge: 003-28W, Höhe: 89 m

Beobachtung

Neuester Wetterbericht von vor 16 Minuten, um 11:00 UTC
Wind 9 kt aus Südwest
Temperatur 7°C
Luftfeuchtigkeit 87%
Luftdruck 995 hPa
Sichtweite 10 km oder mehr
Leichtregen

METAR: LFRO 141100Z AUTO 23009KT 9999 -RA FEW028/// SCT037/// BKN047/// ///TCU 07/05 Q0995

Zeit: 12:16 (11:16 UTC)


TAF: fehlend

Wetterbeobachtungen und Prognosen von mehr als 4000 Flughäfen (METAR und TAF Bericht).

Die verfügbaren Stationen werden durch gelbe und rote Markierungen auf der Karte dargestellt.

Führen Sie die Maus auf sie, um den Namen der Station zu sehen.

Darauf klicken, um die Beobachtung von Wetterbeobachtungen und Prognosen zu sehen.

Um die Karte zu ändern : klicken Sie auf den grünen Tasten mit einem schwarzen Kreuz Zum Vergrößern, auf den grünen Button mit einem Gedankenstrich zu verkleinern, oder auf die grünen Pfeile für benachbarte Karten.


METAR-TAF: